createdAt,value
2018-05-10T00:01:28.224Z,92.60
2018-05-10T00:03:04.882Z,92.70
2018-05-10T00:04:45.183Z,92.20
2018-05-10T00:06:22.852Z,91.80
2018-05-10T00:08:02.738Z,92.40
2018-05-10T00:09:40.634Z,92.40
2018-05-10T00:11:17.299Z,92.60
2018-05-10T00:12:54.566Z,93.00
2018-05-10T00:14:31.623Z,93.50
2018-05-10T00:16:08.203Z,93.50
2018-05-10T00:17:48.018Z,93.40
2018-05-10T00:20:55.060Z,93.30
2018-05-10T00:22:32.049Z,93.20
2018-05-10T00:24:08.844Z,93.20
2018-05-10T00:25:46.037Z,93.20
2018-05-10T00:27:23.083Z,93.50
2018-05-10T00:28:59.333Z,93.50
2018-05-10T00:30:37.470Z,93.40
2018-05-10T00:32:15.034Z,93.40
2018-05-10T00:33:51.521Z,93.40
2018-05-10T00:35:28.445Z,93.60
2018-05-10T00:37:05.320Z,94.00
2018-05-10T00:38:41.865Z,94.10
2018-05-10T00:40:18.244Z,93.80
2018-05-10T00:41:54.645Z,93.70
2018-05-10T00:43:31.220Z,93.50
2018-05-10T00:45:07.676Z,93.60
2018-05-10T00:46:45.181Z,93.90
2018-05-10T00:48:21.572Z,93.90
2018-05-10T00:49:58.987Z,93.80
2018-05-10T00:51:37.532Z,93.80
2018-05-10T00:53:13.777Z,94.40
2018-05-10T00:54:58.589Z,94.20
2018-05-10T00:56:35.327Z,94.30
2018-05-10T00:58:11.978Z,93.90
2018-05-10T00:59:50.289Z,93.80
2018-05-10T01:01:27.197Z,93.80
2018-05-10T01:03:04.226Z,93.60
2018-05-10T01:04:41.378Z,93.60
2018-05-10T01:06:17.626Z,93.60
2018-05-10T01:07:54.830Z,93.40
2018-05-10T01:09:31.465Z,93.50
2018-05-10T01:11:07.822Z,93.60
2018-05-10T01:12:44.104Z,93.90
2018-05-10T01:14:20.663Z,93.90
2018-05-10T01:15:57.939Z,94.00
2018-05-10T01:17:35.086Z,94.30
2018-05-10T01:22:12.262Z,93.30
2018-05-10T01:23:50.788Z,93.00
2018-05-10T01:25:28.371Z,93.10
2018-05-10T01:27:06.078Z,93.40
2018-05-10T01:28:43.999Z,93.60
2018-05-10T01:30:23.564Z,93.30
2018-05-10T01:32:02.155Z,93.30
2018-05-10T01:33:40.060Z,93.20
2018-05-10T01:36:24.184Z,93.40
2018-05-10T01:38:02.334Z,93.70
2018-05-10T01:39:40.121Z,93.70
2018-05-10T01:41:17.706Z,93.70
2018-05-10T01:42:55.676Z,93.50
2018-05-10T01:44:33.240Z,93.50
2018-05-10T01:46:11.155Z,93.60
2018-05-10T01:47:48.712Z,93.70
2018-05-10T01:49:27.058Z,93.90
2018-05-10T01:51:04.651Z,93.90
2018-05-10T01:52:42.213Z,94.20
2018-05-10T01:54:19.801Z,94.20
2018-05-10T01:55:58.780Z,93.90
2018-05-10T01:57:36.275Z,93.80
2018-05-10T01:59:13.829Z,94.10
2018-05-10T02:00:51.521Z,94.40
2018-05-10T02:02:29.093Z,94.20
2018-05-10T02:04:08.670Z,94.20
2018-05-10T02:05:46.317Z,94.10
2018-05-10T02:07:24.654Z,94.00
2018-05-10T02:09:02.268Z,94.00
2018-05-10T02:10:41.565Z,93.70
2018-05-10T02:12:19.216Z,93.90
2018-05-10T02:13:56.741Z,93.90
2018-05-10T02:15:34.902Z,94.00
2018-05-10T02:17:19.993Z,93.80
2018-05-10T02:18:57.622Z,93.80
2018-05-10T02:20:35.219Z,93.80
2018-05-10T02:22:12.800Z,93.60
2018-05-10T02:23:50.719Z,93.90
2018-05-10T02:25:28.945Z,93.70
2018-05-10T02:27:12.895Z,93.50
2018-05-10T02:28:49.205Z,93.60
2018-05-10T02:30:29.381Z,93.70
2018-05-10T02:32:08.219Z,93.60
2018-05-10T02:33:44.493Z,93.70
2018-05-10T02:35:20.741Z,93.60
2018-05-10T02:36:56.920Z,93.50
2018-05-10T02:38:33.237Z,93.20
2018-05-10T02:40:10.493Z,93.40
2018-05-10T02:41:46.694Z,93.60
2018-05-10T02:43:22.919Z,93.60
2018-05-10T02:44:59.316Z,93.40
2018-05-10T02:46:36.203Z,93.50
2018-05-10T02:48:13.238Z,94.10
2018-05-10T02:49:49.465Z,94.10
2018-05-10T02:51:25.833Z,94.40
2018-05-10T02:53:02.375Z,94.50
2018-05-10T02:54:40.322Z,94.40
2018-05-10T02:56:16.560Z,94.40
2018-05-10T02:57:52.827Z,94.40
2018-05-10T02:59:29.298Z,94.10
2018-05-10T03:01:05.974Z,93.90
2018-05-10T03:02:42.518Z,93.80
2018-05-10T03:04:18.929Z,93.80
2018-05-10T03:05:55.182Z,93.80
2018-05-10T03:07:31.654Z,94.10
2018-05-10T03:09:10.410Z,94.10
2018-05-10T03:10:46.774Z,94.20
2018-05-10T03:12:23.820Z,94.20
2018-05-10T03:14:00.973Z,94.40
2018-05-10T03:15:38.145Z,94.40
2018-05-10T03:17:14.896Z,94.80
2018-05-10T03:18:51.304Z,95.30
2018-05-10T03:20:27.717Z,95.70
2018-05-10T03:22:06.394Z,96.20
2018-05-10T03:23:42.699Z,96.20
2018-05-10T03:25:20.262Z,96.30
2018-05-10T03:26:56.882Z,96.30
2018-05-10T03:28:33.536Z,96.40
2018-05-10T03:30:10.749Z,96.30
2018-05-10T03:31:47.326Z,96.20
2018-05-10T03:33:24.225Z,96.30
2018-05-10T03:35:00.397Z,96.50
2018-05-10T03:36:36.713Z,96.80
2018-05-10T03:38:12.995Z,97.00
2018-05-10T03:39:49.278Z,97.10
2018-05-10T03:41:26.331Z,97.40
2018-05-10T03:43:02.557Z,97.40
2018-05-10T03:44:38.758Z,97.60
2018-05-10T03:46:15.341Z,97.60
2018-05-10T03:47:52.790Z,97.80
2018-05-10T03:49:29.168Z,97.80
2018-05-10T03:51:05.534Z,97.70
2018-05-10T03:52:42.675Z,97.90
2018-05-10T03:54:19.456Z,97.80
2018-05-10T03:55:56.665Z,97.60
2018-05-10T03:57:32.959Z,97.30
2018-05-10T03:59:09.204Z,97.30
2018-05-10T04:00:47.126Z,97.20
2018-05-10T04:02:36.484Z,97.20
2018-05-10T04:04:27.862Z,97.30
2018-05-10T04:09:21.550Z,97.50
2018-05-10T04:11:28.912Z,97.50
2018-05-10T04:13:05.168Z,97.50
2018-05-10T04:14:41.389Z,97.40
2018-05-10T04:17:58.320Z,97.70
2018-05-10T04:19:34.565Z,97.60
2018-05-10T04:21:11.573Z,97.50
2018-05-10T04:22:48.356Z,97.50
2018-05-10T04:24:24.666Z,97.10
2018-05-10T04:26:00.910Z,96.80
2018-05-10T04:27:38.000Z,97.60
2018-05-10T04:29:14.594Z,97.60
2018-05-10T04:30:51.122Z,97.70
2018-05-10T04:32:27.469Z,97.90
2018-05-10T04:34:04.529Z,97.70
2018-05-10T04:35:41.223Z,97.70
2018-05-10T04:37:17.527Z,97.60
2018-05-10T04:38:53.839Z,97.40
2018-05-10T04:40:30.177Z,97.80
2018-05-10T04:42:06.552Z,97.90
2018-05-10T04:43:43.108Z,97.90
2018-05-10T04:45:20.109Z,97.60
2018-05-10T04:46:57.127Z,97.40
2018-05-10T04:48:33.878Z,97.40
2018-05-10T04:50:11.356Z,97.70
2018-05-10T04:51:47.619Z,97.80
2018-05-10T04:53:24.681Z,98.30
2018-05-10T04:55:01.544Z,98.30
2018-05-10T04:56:37.771Z,98.40
2018-05-10T04:58:14.828Z,98.10
2018-05-10T04:59:51.090Z,98.10
2018-05-10T05:01:28.042Z,97.70
2018-05-10T05:03:05.157Z,97.80
2018-05-10T05:04:41.544Z,97.80
2018-05-10T05:06:18.570Z,97.80
2018-05-10T05:07:56.134Z,97.80
2018-05-10T05:09:32.448Z,97.50
2018-05-10T05:11:09.410Z,97.70
2018-05-10T05:12:45.689Z,97.70
2018-05-10T05:14:22.289Z,98.10
2018-05-10T05:15:58.975Z,97.90
2018-05-10T05:17:35.309Z,97.40
2018-05-10T05:19:12.141Z,97.60
2018-05-10T05:20:48.829Z,96.80
2018-05-10T05:22:25.114Z,96.40
2018-05-10T05:24:01.419Z,96.60
2018-05-10T05:25:37.679Z,96.80
2018-05-10T05:27:15.101Z,96.80
2018-05-10T05:28:51.501Z,97.00
2018-05-10T05:30:28.010Z,96.70
2018-05-10T05:32:04.794Z,96.80
2018-05-10T05:33:41.603Z,96.90
2018-05-10T05:35:18.649Z,96.60
2018-05-10T05:36:57.308Z,96.60
2018-05-10T05:38:33.599Z,96.00
2018-05-10T05:40:11.264Z,96.00
2018-05-10T05:41:47.508Z,95.70
2018-05-10T05:43:23.901Z,95.70
2018-05-10T05:45:00.036Z,95.60
2018-05-10T05:46:38.006Z,95.40
2018-05-10T05:48:14.293Z,95.30
2018-05-10T05:49:51.069Z,95.60
2018-05-10T05:51:27.550Z,96.10
2018-05-10T05:53:04.147Z,94.80
2018-05-10T05:54:40.789Z,94.40
2018-05-10T05:56:17.772Z,93.40
2018-05-10T05:57:54.771Z,93.00
2018-05-10T05:59:31.510Z,93.00
2018-05-10T06:01:08.452Z,93.00
2018-05-10T06:04:20.586Z,93.30
2018-05-10T06:05:57.215Z,94.40
2018-05-10T06:07:33.989Z,94.50
2018-05-10T06:09:10.256Z,94.40
2018-05-10T06:10:47.042Z,94.20
2018-05-10T06:12:24.446Z,94.40
2018-05-10T06:14:01.536Z,94.20
2018-05-10T06:15:38.270Z,94.20
2018-05-10T06:17:14.534Z,94.20
2018-05-10T06:18:51.151Z,93.90
2018-05-10T06:20:27.576Z,93.70
2018-05-10T06:22:05.019Z,93.50
2018-05-10T06:23:41.860Z,93.30
2018-05-10T06:25:18.765Z,93.40
2018-05-10T06:26:55.085Z,93.70
2018-05-10T06:28:32.095Z,94.20
2018-05-10T06:30:09.270Z,94.20
2018-05-10T06:31:46.333Z,94.10
2018-05-10T06:33:22.682Z,94.10
2018-05-10T06:34:58.964Z,93.70
2018-05-10T06:36:35.242Z,93.80
2018-05-10T06:38:12.433Z,93.50
2018-05-10T06:39:48.924Z,93.60
2018-05-10T06:41:25.280Z,94.10
2018-05-10T06:43:01.851Z,94.30
2018-05-10T06:44:38.656Z,94.80
2018-05-10T06:46:15.441Z,94.50
2018-05-10T06:47:52.522Z,94.00
2018-05-10T06:49:28.917Z,94.00
2018-05-10T06:51:05.692Z,94.30
2018-05-10T06:52:42.088Z,94.10
2018-05-10T06:54:18.387Z,94.20
2018-05-10T06:55:54.726Z,93.90
2018-05-10T06:57:31.717Z,93.70
2018-05-10T06:59:08.631Z,93.50
2018-05-10T07:00:45.472Z,93.00
2018-05-10T07:02:21.802Z,92.40
2018-05-10T07:03:58.348Z,92.60
2018-05-10T07:05:34.686Z,93.00
2018-05-10T07:07:10.966Z,92.90
2018-05-10T07:08:47.262Z,92.60
2018-05-10T07:10:24.011Z,92.50
2018-05-10T07:12:00.533Z,92.70
2018-05-10T07:13:36.872Z,92.70
2018-05-10T07:15:15.463Z,92.20
2018-05-10T07:16:52.349Z,92.20
2018-05-10T07:18:29.371Z,91.20
2018-05-10T07:20:05.736Z,91.20
2018-05-10T07:21:41.984Z,91.60
2018-05-10T07:23:18.892Z,90.90
2018-05-10T07:24:55.145Z,90.50
2018-05-10T07:26:31.489Z,90.70
2018-05-10T07:28:07.739Z,90.80
2018-05-10T07:29:44.634Z,90.50
2018-05-10T07:31:21.390Z,91.10
2018-05-10T07:32:57.794Z,91.40
2018-05-10T07:34:34.223Z,90.90
2018-05-10T07:36:11.211Z,90.80
2018-05-10T07:37:47.628Z,90.20
2018-05-10T07:39:24.014Z,90.30
2018-05-10T07:41:00.504Z,89.80
2018-05-10T07:42:37.741Z,90.00
2018-05-10T07:44:14.314Z,88.50
2018-05-10T07:45:50.856Z,86.60
2018-05-10T07:47:28.078Z,83.50
2018-05-10T07:49:04.421Z,83.40
2018-05-10T07:50:40.749Z,83.50
2018-05-10T07:52:17.011Z,82.40
2018-05-10T07:53:53.357Z,81.40
2018-05-10T07:55:29.642Z,81.50
2018-05-10T07:57:06.048Z,81.00
2018-05-10T07:58:42.503Z,80.50
2018-05-10T08:00:19.672Z,80.30
2018-05-10T08:01:56.268Z,78.00
2018-05-10T08:03:33.424Z,77.60
2018-05-10T08:05:09.717Z,78.20
2018-05-10T08:06:46.515Z,78.50
2018-05-10T08:08:22.967Z,78.60
2018-05-10T08:10:00.435Z,78.40
2018-05-10T08:11:36.821Z,77.30
2018-05-10T08:13:13.573Z,77.80
2018-05-10T08:14:50.173Z,79.50
2018-05-10T08:16:27.014Z,80.80
2018-05-10T08:18:03.748Z,80.20
2018-05-10T08:19:40.642Z,80.40
2018-05-10T08:21:17.024Z,79.70
2018-05-10T08:22:53.444Z,80.70
2018-05-10T08:24:29.866Z,81.30
2018-05-10T08:26:06.617Z,82.10
2018-05-10T08:27:48.501Z,82.80
2018-05-10T08:29:26.051Z,82.80
2018-05-10T08:31:02.850Z,83.30
2018-05-10T08:32:39.420Z,82.10
2018-05-10T08:34:15.766Z,81.70
2018-05-10T08:35:54.156Z,80.90
2018-05-10T08:37:30.600Z,80.40
2018-05-10T08:39:24.956Z,74.90
2018-05-10T08:41:02.100Z,70.00
2018-05-10T08:42:38.416Z,70.00
2018-05-10T08:44:15.665Z,71.10
2018-05-10T08:45:52.529Z,68.50
2018-05-10T08:49:05.992Z,65.60
2018-05-10T08:50:43.321Z,68.80
2018-05-10T08:52:19.975Z,68.80
2018-05-10T08:53:56.307Z,69.00
2018-05-10T08:55:33.355Z,67.30
2018-05-10T08:57:09.676Z,67.30
2018-05-10T08:58:46.574Z,66.20
2018-05-10T09:00:23.094Z,65.80
2018-05-10T09:01:59.423Z,66.90
2018-05-10T09:03:35.722Z,65.80
2018-05-10T09:05:12.385Z,66.70
2018-05-10T09:06:49.572Z,67.80
2018-05-10T09:08:26.679Z,68.80
2018-05-10T09:10:03.107Z,68.70
2018-05-10T09:11:40.752Z,70.10
2018-05-10T09:13:17.109Z,70.10
2018-05-10T09:14:55.225Z,69.90
2018-05-10T09:16:32.030Z,71.30
2018-05-10T09:18:08.542Z,72.60
2018-05-10T09:19:45.000Z,73.70
2018-05-10T09:21:21.346Z,71.60
2018-05-10T09:22:58.483Z,70.20
2018-05-10T09:24:36.447Z,70.30
2018-05-10T09:26:12.785Z,69.40
2018-05-10T09:27:49.986Z,69.00
2018-05-10T09:29:26.360Z,69.00
2018-05-10T09:31:04.254Z,68.60
2018-05-10T09:32:40.554Z,68.60
2018-05-10T09:34:16.895Z,68.80
2018-05-10T09:35:53.413Z,67.50
2018-05-10T09:37:30.134Z,67.40
2018-05-10T09:39:07.829Z,67.80
2018-05-10T09:40:44.132Z,69.50
2018-05-10T09:42:21.227Z,72.30
2018-05-10T09:43:58.466Z,73.10
2018-05-10T09:45:35.985Z,73.80
2018-05-10T09:47:12.265Z,73.80
2018-05-10T09:48:48.699Z,73.30
2018-05-10T09:50:26.733Z,73.10
2018-05-10T09:52:04.161Z,72.40
2018-05-10T09:53:40.440Z,73.20
2018-05-10T09:55:17.128Z,74.20
2018-05-10T09:56:53.612Z,72.60
2018-05-10T09:58:30.922Z,71.30
2018-05-10T10:00:09.980Z,71.30
2018-05-10T10:01:47.092Z,69.30
2018-05-10T10:03:23.447Z,70.00
2018-05-10T10:04:59.775Z,71.40
2018-05-10T10:06:36.312Z,73.40
2018-05-10T10:08:12.795Z,73.40
2018-05-10T10:09:49.258Z,74.50
2018-05-10T10:11:25.745Z,75.20
2018-05-10T10:13:02.187Z,76.50
2018-05-10T10:14:38.942Z,77.40
2018-05-10T10:16:15.622Z,77.70
2018-05-10T10:17:52.019Z,77.80
2018-05-10T10:19:28.423Z,77.00
2018-05-10T10:21:08.268Z,77.60
2018-05-10T10:22:45.030Z,77.80
2018-05-10T10:24:21.352Z,78.40
2018-05-10T10:25:57.666Z,78.40
2018-05-10T10:27:34.418Z,79.30
2018-05-10T10:29:10.865Z,78.90
2018-05-10T10:30:47.764Z,78.80
2018-05-10T10:32:24.210Z,78.50
2018-05-10T10:34:00.816Z,79.00
2018-05-10T10:35:37.355Z,79.50
2018-05-10T10:37:14.429Z,80.10
2018-05-10T10:38:50.844Z,80.10
2018-05-10T10:40:27.519Z,80.50
2018-05-10T10:42:03.911Z,80.80
2018-05-10T10:43:41.018Z,82.40
2018-05-10T10:45:18.414Z,82.40
2018-05-10T10:46:55.127Z,83.30
2018-05-10T10:48:31.537Z,82.70
2018-05-10T10:50:08.656Z,83.90
2018-05-10T10:51:45.014Z,83.90
2018-05-10T10:53:21.910Z,84.30
2018-05-10T10:54:59.113Z,87.60
2018-05-10T10:56:35.822Z,87.50
2018-05-10T10:58:12.627Z,90.10
2018-05-10T10:59:49.785Z,90.40
2018-05-10T11:01:26.465Z,90.60
2018-05-10T11:03:03.699Z,90.50
2018-05-10T11:04:40.878Z,91.00
2018-05-10T11:06:18.446Z,91.30
2018-05-10T11:07:55.277Z,91.30
2018-05-10T11:09:31.710Z,91.50
2018-05-10T11:11:08.961Z,91.40
2018-05-10T11:12:45.920Z,91.40
2018-05-10T11:14:22.313Z,91.60
2018-05-10T11:15:59.130Z,92.10
2018-05-10T11:17:35.485Z,92.20
2018-05-10T11:19:11.899Z,92.50
2018-05-10T11:20:48.465Z,92.90
2018-05-10T11:22:24.772Z,92.90
2018-05-10T11:24:01.135Z,92.90
2018-05-10T11:25:37.879Z,93.10
2018-05-10T11:27:14.311Z,93.40
2018-05-10T11:28:50.945Z,93.60
2018-05-10T11:30:30.474Z,93.80
2018-05-10T11:32:07.247Z,93.90
2018-05-10T11:33:43.608Z,93.90
2018-05-10T11:35:19.970Z,94.60
2018-05-10T11:36:56.397Z,94.40
2018-05-10T11:38:34.423Z,94.30
2018-05-10T11:40:11.032Z,94.30
2018-05-10T11:41:47.539Z,94.30
2018-05-10T11:43:24.718Z,93.50
2018-05-10T11:45:03.211Z,93.50
2018-05-10T11:46:39.962Z,93.40
2018-05-10T11:48:16.379Z,93.50
2018-05-10T11:49:53.515Z,93.30
2018-05-10T11:51:30.221Z,93.30
2018-05-10T11:53:07.396Z,93.30
2018-05-10T11:54:44.479Z,93.10
2018-05-10T11:56:21.573Z,93.00
2018-05-10T11:58:03.610Z,93.00
2018-05-10T11:59:39.884Z,93.90
2018-05-10T12:01:16.385Z,93.50
2018-05-10T12:02:52.930Z,93.80
2018-05-10T12:04:29.295Z,93.90
2018-05-10T12:06:05.837Z,94.30
2018-05-10T12:07:42.245Z,93.80
2018-05-10T12:09:19.326Z,93.40
2018-05-10T12:10:56.144Z,93.40
2018-05-10T12:12:32.461Z,93.50
2018-05-10T12:14:08.778Z,94.10
2018-05-10T12:15:45.544Z,93.90
2018-05-10T12:17:23.319Z,93.80
2018-05-10T12:18:59.694Z,94.00
2018-05-10T12:20:36.062Z,93.50
2018-05-10T12:22:12.671Z,93.90
2018-05-10T12:23:50.142Z,93.50
2018-05-10T12:25:27.393Z,93.00
2018-05-10T12:27:04.534Z,93.00
2018-05-10T12:28:40.922Z,93.00
2018-05-10T12:30:18.206Z,93.40
2018-05-10T12:31:54.725Z,93.50
2018-05-10T12:33:31.305Z,93.70
2018-05-10T12:35:07.863Z,94.30
2018-05-10T12:36:45.180Z,94.30
2018-05-10T12:38:21.557Z,95.10
2018-05-10T12:39:58.152Z,94.90
2018-05-10T12:41:34.502Z,94.30
2018-05-10T12:43:11.210Z,93.90
2018-05-10T12:44:47.542Z,93.40
2018-05-10T12:46:24.234Z,93.40
2018-05-10T12:48:01.432Z,93.70
2018-05-10T12:49:37.813Z,93.40
2018-05-10T12:51:14.193Z,92.90
2018-05-10T12:52:51.078Z,93.80
2018-05-10T12:54:28.083Z,93.20
2018-05-10T12:56:05.715Z,92.70
2018-05-10T12:57:42.881Z,92.70
2018-05-10T12:59:19.293Z,92.70
2018-05-10T13:00:56.255Z,92.50
2018-05-10T13:02:32.957Z,93.10
2018-05-10T13:04:09.428Z,93.20
2018-05-10T13:05:45.767Z,93.50
2018-05-10T13:07:24.222Z,93.10
2018-05-10T13:09:01.234Z,93.50
2018-05-10T13:10:37.720Z,93.50
2018-05-10T13:12:14.417Z,93.80
2018-05-10T13:13:50.826Z,92.90
2018-05-10T13:15:31.961Z,92.90
2018-05-10T13:17:08.345Z,92.80
2018-05-10T13:18:45.504Z,92.60
2018-05-10T13:20:22.670Z,92.70
2018-05-10T13:21:59.445Z,92.70
2018-05-10T13:23:36.676Z,93.10
2018-05-10T13:25:13.172Z,93.10
2018-05-10T13:26:49.564Z,92.50
2018-05-10T13:28:27.134Z,93.00
2018-05-10T13:30:05.826Z,93.10
2018-05-10T13:31:42.301Z,93.70
2018-05-10T13:33:18.724Z,93.80
2018-05-10T13:34:56.345Z,94.00
2018-05-10T13:36:33.119Z,94.00
2018-05-10T13:38:12.294Z,93.50
2018-05-10T13:39:48.834Z,93.60
2018-05-10T13:41:26.801Z,93.70
2018-05-10T13:44:35.118Z,93.20
2018-05-10T13:46:12.876Z,93.30
2018-05-10T13:49:30.682Z,93.40
2018-05-10T13:51:07.377Z,93.90
2018-05-10T13:52:44.603Z,94.10
2018-05-10T13:54:21.456Z,94.10
2018-05-10T13:55:57.953Z,93.50
2018-05-10T13:57:34.437Z,92.90
2018-05-10T13:59:10.796Z,92.70
2018-05-10T14:00:47.735Z,92.90
2018-05-10T14:02:24.214Z,92.80
2018-05-10T14:04:01.411Z,93.20
2018-05-10T14:05:37.735Z,93.20
2018-05-10T14:07:14.750Z,92.20
2018-05-10T14:08:51.417Z,92.20
2018-05-10T14:10:28.308Z,92.70
2018-05-10T14:12:04.719Z,93.20
2018-05-10T14:13:41.403Z,93.10
2018-05-10T14:15:18.709Z,92.70
2018-05-10T14:16:55.229Z,92.60
2018-05-10T14:18:31.587Z,92.30
2018-05-10T14:20:08.370Z,92.00
2018-05-10T14:21:44.770Z,91.80
2018-05-10T14:23:21.118Z,91.60
2018-05-10T14:24:57.573Z,91.40
2018-05-10T14:26:34.368Z,91.70
2018-05-10T14:28:11.079Z,91.70
2018-05-10T14:29:47.819Z,91.50
2018-05-10T14:31:24.437Z,91.30
2018-05-10T14:33:01.277Z,90.90
2018-05-10T14:34:37.660Z,90.60
2018-05-10T14:36:15.089Z,90.30
2018-05-10T14:37:51.578Z,90.30
2018-05-10T14:39:28.743Z,90.20
2018-05-10T14:41:05.288Z,90.40
2018-05-10T14:42:42.175Z,90.70
2018-05-10T14:44:18.549Z,91.00
2018-05-10T14:45:56.099Z,90.30
2018-05-10T14:47:33.197Z,90.20
2018-05-10T14:49:09.674Z,89.30
2018-05-10T14:50:46.351Z,88.20
2018-05-10T14:52:24.586Z,89.80
2018-05-10T14:54:01.880Z,87.90
2018-05-10T14:55:39.231Z,88.00
2018-05-10T14:57:15.742Z,88.00
2018-05-10T14:58:52.622Z,88.10
2018-05-10T15:00:30.175Z,87.70
2018-05-10T15:02:06.764Z,87.80
2018-05-10T15:03:43.129Z,87.50
2018-05-10T15:05:21.641Z,86.70
2018-05-10T15:06:58.883Z,86.30
2018-05-10T15:08:35.675Z,86.10
2018-05-10T15:10:12.111Z,84.60
2018-05-10T15:11:49.057Z,83.90
2018-05-10T15:13:26.439Z,84.20
2018-05-10T15:15:04.460Z,83.00
2018-05-10T15:16:40.993Z,81.30
2018-05-10T15:18:18.585Z,81.50
2018-05-10T15:19:55.855Z,81.50
2018-05-10T15:21:32.695Z,81.60
2018-05-10T15:23:09.142Z,81.30
2018-05-10T15:24:45.528Z,81.10
2018-05-10T15:26:21.892Z,82.70
2018-05-10T15:27:58.285Z,79.20
2018-05-10T15:29:35.265Z,78.80
2018-05-10T15:31:13.284Z,77.30
2018-05-10T15:32:50.259Z,79.60
2018-05-10T15:34:27.882Z,77.90
2018-05-10T15:36:04.640Z,77.30
2018-05-10T15:37:41.462Z,77.70
2018-05-10T15:39:17.871Z,77.00
2018-05-10T15:40:54.358Z,76.30
2018-05-10T15:42:31.772Z,77.50
2018-05-10T15:44:08.248Z,74.60
2018-05-10T15:45:44.960Z,72.80
2018-05-10T15:47:21.463Z,73.30
2018-05-10T15:48:58.241Z,72.20
2018-05-10T15:50:34.808Z,72.80
2018-05-10T15:52:12.021Z,72.80
2018-05-10T15:53:49.352Z,72.80
2018-05-10T15:55:26.267Z,72.80
2018-05-10T15:57:03.630Z,72.70
2018-05-10T15:58:40.074Z,72.70
2018-05-10T16:00:18.362Z,73.00
2018-05-10T16:01:55.208Z,71.30
2018-05-10T16:03:33.229Z,74.00
2018-05-10T16:05:10.388Z,73.90
2018-05-10T16:06:46.773Z,70.50
2018-05-10T16:08:23.975Z,71.20
2018-05-10T16:10:01.202Z,71.60
2018-05-10T16:11:37.787Z,70.90
2018-05-10T16:13:14.118Z,70.10
2018-05-10T16:14:51.021Z,71.00
2018-05-10T16:16:27.663Z,70.20
2018-05-10T16:18:04.011Z,69.70
2018-05-10T16:19:40.535Z,72.10
2018-05-10T16:21:20.092Z,72.50
2018-05-10T16:22:59.842Z,72.70
2018-05-10T16:24:36.227Z,73.40
2018-05-10T16:26:12.657Z,72.60
2018-05-10T16:27:49.498Z,73.60
2018-05-10T16:29:27.995Z,74.50
2018-05-10T16:31:06.441Z,74.40
2018-05-10T16:32:44.527Z,72.60
2018-05-10T16:34:40.001Z,72.90
2018-05-10T16:36:18.142Z,73.60
2018-05-10T16:37:56.443Z,73.90
2018-05-10T16:39:34.053Z,73.70
2018-05-10T16:41:10.958Z,73.40
2018-05-10T16:42:47.317Z,72.70
2018-05-10T16:44:23.805Z,71.60
2018-05-10T16:46:20.023Z,72.40
2018-05-10T16:47:59.429Z,71.90
2018-05-10T16:49:36.591Z,71.00
2018-05-10T16:51:13.189Z,71.50
2018-05-10T16:52:49.720Z,72.50
2018-05-10T16:54:27.301Z,71.70
2018-05-10T16:56:05.176Z,70.50
2018-05-10T16:57:42.836Z,69.70
2018-05-10T16:59:20.442Z,70.50
2018-05-10T17:00:58.249Z,70.90
2018-05-10T17:02:34.516Z,70.80
2018-05-10T17:04:11.663Z,70.00
2018-05-10T17:05:48.152Z,70.00
2018-05-10T17:07:25.795Z,70.80
2018-05-10T17:09:02.238Z,70.80
2018-05-10T17:10:38.740Z,70.20
2018-05-10T17:12:16.443Z,70.30
2018-05-10T17:13:53.369Z,70.70
2018-05-10T17:15:30.042Z,71.00
2018-05-10T17:17:06.598Z,71.20
2018-05-10T17:18:42.945Z,71.40
2018-05-10T17:20:19.576Z,71.00
2018-05-10T17:21:57.039Z,71.30
2018-05-10T17:23:33.436Z,71.30
2018-05-10T17:25:09.929Z,70.70
2018-05-10T17:26:46.798Z,71.00
2018-05-10T17:28:24.503Z,71.50
2018-05-10T17:30:02.502Z,72.70
2018-05-10T17:31:39.332Z,74.10
2018-05-10T17:33:16.366Z,73.60
2018-05-10T17:34:52.860Z,73.30
2018-05-10T17:36:29.324Z,72.50
2018-05-10T17:38:06.521Z,71.10
2018-05-10T17:39:44.134Z,71.80
2018-05-10T17:41:20.476Z,71.80
2018-05-10T17:42:57.785Z,71.20
2018-05-10T17:44:34.275Z,71.20
2018-05-10T17:46:13.011Z,71.90
2018-05-10T17:47:50.539Z,72.20
2018-05-10T17:49:28.537Z,72.10
2018-05-10T17:51:05.152Z,70.90
2018-05-10T17:52:42.034Z,70.30
2018-05-10T17:54:18.434Z,70.00
2018-05-10T17:55:54.821Z,70.50
2018-05-10T17:57:32.614Z,71.50
2018-05-10T17:59:10.377Z,71.40
2018-05-10T18:00:47.084Z,70.90
2018-05-10T18:02:23.622Z,70.70
2018-05-10T18:04:00.079Z,70.70
2018-05-10T18:05:36.591Z,71.30
2018-05-10T18:07:13.108Z,72.20
2018-05-10T18:08:50.670Z,72.00
2018-05-10T18:10:29.669Z,71.90
2018-05-10T18:12:07.522Z,72.10
2018-05-10T18:13:44.098Z,72.00
2018-05-10T18:15:21.438Z,72.10
2018-05-10T18:17:01.216Z,72.70
2018-05-10T18:18:38.129Z,72.70
2018-05-10T18:20:14.589Z,72.40
2018-05-10T18:21:51.043Z,72.90
2018-05-10T18:23:27.752Z,71.90
2018-05-10T18:25:04.838Z,72.60
2018-05-10T18:26:41.540Z,72.50
2018-05-10T18:28:18.948Z,72.10
2018-05-10T18:29:56.365Z,72.40
2018-05-10T18:31:34.011Z,71.70
2018-05-10T18:33:11.355Z,71.20
2018-05-10T18:34:47.902Z,71.20
2018-05-10T18:36:26.280Z,71.90
2018-05-10T18:38:03.304Z,71.90
2018-05-10T18:39:39.825Z,72.80
2018-05-10T18:41:16.252Z,72.20
2018-05-10T18:42:52.674Z,73.00
2018-05-10T18:44:29.477Z,72.70
2018-05-10T18:46:06.911Z,72.60
2018-05-10T18:47:44.095Z,72.80
2018-05-10T18:49:23.037Z,72.80
2018-05-10T18:50:59.402Z,72.80
2018-05-10T18:52:35.879Z,73.50
2018-05-10T18:54:13.102Z,74.30
2018-05-10T18:55:49.493Z,74.30
2018-05-10T18:57:26.377Z,74.10
2018-05-10T18:59:02.928Z,74.60
2018-05-10T19:00:39.550Z,74.50
2018-05-10T19:02:15.929Z,74.40
2018-05-10T19:03:52.768Z,74.50
2018-05-10T19:05:29.384Z,74.50
2018-05-10T19:07:06.818Z,74.40
2018-05-10T19:08:43.555Z,74.80
2018-05-10T19:10:21.341Z,74.80
2018-05-10T19:11:58.638Z,74.60
2018-05-10T19:13:35.001Z,75.20
2018-05-10T19:15:12.827Z,74.90
2018-05-10T19:18:46.025Z,75.20
2018-05-10T19:20:23.189Z,75.00
2018-05-10T19:22:06.888Z,75.20
2018-05-10T19:23:48.184Z,74.70
2018-05-10T19:25:35.193Z,74.80
2018-05-10T19:27:12.123Z,75.40
2018-05-10T19:28:48.620Z,75.70
2018-05-10T19:30:25.357Z,76.50
2018-05-10T19:32:02.208Z,76.50
2018-05-10T19:33:38.995Z,76.10
2018-05-10T19:35:16.472Z,76.00
2018-05-10T19:36:52.963Z,76.40
2018-05-10T19:38:29.619Z,76.60
2018-05-10T19:40:06.619Z,76.60
2018-05-10T19:41:43.901Z,77.50
2018-05-10T19:43:20.329Z,77.50
2018-05-10T19:44:57.542Z,78.80
2018-05-10T19:46:34.186Z,78.90
2018-05-10T19:48:11.404Z,79.40
2018-05-10T19:49:48.144Z,79.70
2018-05-10T19:51:24.968Z,79.40
2018-05-10T19:53:06.789Z,80.50
2018-05-10T19:54:43.393Z,80.40
2018-05-10T19:56:20.267Z,80.50
2018-05-10T19:57:56.710Z,80.70
2018-05-10T19:59:33.515Z,80.20
2018-05-10T20:01:10.998Z,80.40
2018-05-10T20:02:47.426Z,80.40
2018-05-10T20:04:23.912Z,80.70
2018-05-10T20:06:00.819Z,80.90
2018-05-10T20:07:37.560Z,81.10
2018-05-10T20:09:14.237Z,81.20
2018-05-10T20:10:50.736Z,80.90
2018-05-10T20:12:28.448Z,81.50
2018-05-10T20:14:05.125Z,81.50
2018-05-10T20:15:42.446Z,81.40
2018-05-10T20:17:18.961Z,81.90
2018-05-10T20:18:56.018Z,82.30
2018-05-10T20:20:32.415Z,82.40
2018-05-10T20:22:09.000Z,83.10
2018-05-10T20:23:45.383Z,83.20
2018-05-10T20:25:22.250Z,83.40
2018-05-10T20:26:58.751Z,84.20
2018-05-10T20:28:36.174Z,84.90
2018-05-10T20:30:20.168Z,84.90
2018-05-10T20:31:56.634Z,85.40
2018-05-10T20:35:20.667Z,85.20
2018-05-10T20:36:59.034Z,84.90
2018-05-10T20:38:36.417Z,85.40
2018-05-10T20:40:14.485Z,86.60
2018-05-10T20:41:52.407Z,86.60
2018-05-10T20:43:29.930Z,87.20
2018-05-10T20:45:08.621Z,87.80
2018-05-10T20:46:47.405Z,87.90
2018-05-10T20:48:24.178Z,88.20
2018-05-10T20:50:02.366Z,88.90
2018-05-10T20:51:39.890Z,89.80
2018-05-10T20:53:17.220Z,89.80
2018-05-10T20:54:54.364Z,90.00
2018-05-10T20:56:33.144Z,90.00
2018-05-10T20:58:10.218Z,90.30
2018-05-10T20:59:51.985Z,90.50
2018-05-10T21:01:28.823Z,90.70
2018-05-10T21:03:05.950Z,90.80
2018-05-10T21:04:42.578Z,90.90
2018-05-10T21:06:19.609Z,90.90
2018-05-10T21:07:55.988Z,91.20
2018-05-10T21:09:33.101Z,91.10
2018-05-10T21:11:09.681Z,91.00
2018-05-10T21:12:47.420Z,90.80